Thunder radar more information blitzortung!


Radar de pluja more information rain snow radar


Visita la nostra xarxa de llocs de meteo:

Template documentation
and downloads

And another site



No particular awareness of the weather is required.    There are no Weather-warnings

Pagina Historial Weather Underground text

Diari Resum May 29, 2016 Unitats:  Mètric    Imperial   Tant
« Previous Dia
SegĂźent Dia »
Diari Setmana Mensual Anual Personalitzada
  Maxima: Minima: Media:
Temperatura: 26.4 °C 13.8 °C 18.3 °C
Punt de rosada: 12.2 °C 5.4 °C 7.7 °C
Humitat: 81 % 28 % 52 %
Wind Speed: 14.8 km/h 0.0 km/h 5.6 km/h
RĂ fegues de vent: 14.8 km/h - -
Vent:- - ENE
Pression baro: 1016.8 hPa 1011.7 hPa -
Precipitacions: 0.0 mm    
Historical Graphs
 
 
Dades de taula per May 29, 2016
Temps Temperatura Punt de rosada Pression baro Vent Wind Speed RĂ fegues de vent Humitat Rainfall Rate (Hourly)
00:04 15.4 °C 12.2 °C 1011.7 hPa ENE 5.6 km/h 5.6 km/h 81 % 0.0 mm
20:11 26.4 °C 6.4 °C 1012.8 hPa NE 9.3 km/h   28 % 0.0 mm
20:16 26.4 °C 6.4 °C 1012.8 hPa NE 1.9 km/h   28 % 0.0 mm
20:21 22.5 °C 5.4 °C 1013.8 hPa SSW 11.1 km/h 11.1 km/h 33 % 0.0 mm
20:26 22.3 °C 5.7 °C 1013.8 hPa ESE 3.7 km/h 3.9 km/h 34 % 0.0 mm
20:31 22.3 °C 5.7 °C 1013.8 hPa ESE 3.7 km/h 3.7 km/h 34 % 0.0 mm
20:36 22.1 °C 5.9 °C 1014.8 hPa West 3.7 km/h 3.7 km/h 35 % 0.0 mm
20:41 21.9 °C 6.2 °C 1014.8 hPa ESE 9.7 km/h 9.7 km/h 36 % 0.0 mm
20:46 21.5 °C 6.6 °C 1014.8 hPa NE 3.7 km/h 3.7 km/h 38 % 0.0 mm
20:51 21.1 °C 6.6 °C 1014.8 hPa NNE 7.4 km/h 7.4 km/h 39 % 0.0 mm
20:56 20.7 °C 6.9 °C 1014.8 hPa NNE 9.7 km/h 9.7 km/h 41 % 0.0 mm
21:01 20.6 °C 6.9 °C 1014.8 hPa East 9.3 km/h 9.3 km/h 41 % 0.0 mm
21:06 20.4 °C 7.1 °C 1014.8 hPa NNE 6.4 km/h 6.4 km/h 42 % 0.0 mm
21:11 20.3 °C 7.3 °C 1014.8 hPa East 3.9 km/h 5.0 km/h 43 % 0.0 mm
21:16 20.2 °C 7.2 °C 1014.8 hPa ESE 7.4 km/h 7.4 km/h 43 % 0.0 mm
21:20 15.6 °C 8.6 °C 1016.8 hPa ENE 1.6 km/h 3.2 km/h 63 % 0.0 mm
21:26 19.7 °C 7.4 °C 1015.8 hPa ENE 11.1 km/h 11.1 km/h 45 % 0.0 mm
21:30 15.5 °C 8.5 °C 1016.8 hPa NE 1.6 km/h 3.2 km/h 63 % 0.0 mm
21:31 19.6 °C 7.3 °C 1015.8 hPa ENE 14.8 km/h 14.8 km/h 45 % 0.0 mm
21:36 19.4 °C 7.8 °C 1015.8 hPa NNE 11.1 km/h 11.1 km/h 47 % 0.0 mm
21:40 15.4 °C 8.4 °C 1016.8 hPa Calm   3.2 km/h 63 % 0.0 mm
21:41 19.2 °C 7.9 °C 1015.8 hPa NE 11.1 km/h 11.1 km/h 48 % 0.0 mm
21:46 19.1 °C 7.8 °C 1015.8 hPa ENE 9.7 km/h 9.7 km/h 48 % 0.0 mm
21:50 15.3 °C 8.5 °C 1016.8 hPa NE 1.6 km/h 3.2 km/h 64 % 0.0 mm
21:52 18.9 °C 8.2 °C 1015.8 hPa East 8.7 km/h 8.7 km/h 50 % 0.0 mm
21:57 18.8 °C 8.2 °C 1015.8 hPa ENE 13.0 km/h 13.0 km/h 50 % 0.0 mm
22:00 15.2 °C 8.4 °C 1016.8 hPa NE 1.6 km/h 3.2 km/h 64 % 0.0 mm
22:02 18.6 °C 8.3 °C 1015.8 hPa NNE 9.3 km/h 9.3 km/h 51 % 0.0 mm
22:07 18.5 °C 8.2 °C 1016.8 hPa ESE 7.4 km/h 7.4 km/h 51 % 0.0 mm
22:10 15.0 °C 8.0 °C 1016.8 hPa Calm   1.6 km/h 63 % 0.0 mm
22:12 18.3 °C 8.3 °C 1016.8 hPa NNE 13.0 km/h 13.0 km/h 52 % 0.0 mm
22:18 18.3 °C 8.3 °C 1015.8 hPa ENE 4.7 km/h 6.4 km/h 52 % 0.0 mm
22:20 14.9 °C 8.2 °C 1016.8 hPa NNW 1.6 km/h 3.2 km/h 64 % 0.0 mm
22:23 18.2 °C 8.2 °C 1015.8 hPa ENE 7.4 km/h 7.4 km/h 52 % 0.0 mm
22:30 14.9 °C 8.2 °C 1016.8 hPa Calm   3.2 km/h 64 % 0.0 mm
22:33 18.0 °C 8.3 °C 1015.8 hPa East 5.6 km/h 5.6 km/h 53 % 0.0 mm
22:38 17.9 °C 8.2 °C 1015.8 hPa ENE 5.8 km/h 5.8 km/h 53 % 0.0 mm
22:40 14.8 °C 8.1 °C 1015.8 hPa ENE 1.6 km/h 3.2 km/h 64 % 0.0 mm
22:43 17.8 °C 8.1 °C 1015.8 hPa East 7.4 km/h 7.4 km/h 53 % 0.0 mm
22:49 17.8 °C 8.1 °C 1016.8 hPa East 5.6 km/h 5.6 km/h 53 % 0.0 mm
22:50 14.6 °C 8.1 °C 1015.8 hPa Calm   3.2 km/h 65 % 0.0 mm
22:54 17.7 °C 8.3 °C 1016.8 hPa ENE 5.6 km/h 5.6 km/h 54 % 0.0 mm
22:59 17.6 °C 8.2 °C 1016.8 hPa East 5.6 km/h 5.6 km/h 54 % 0.0 mm
23:00 14.4 °C 7.9 °C 1015.8 hPa ENE 1.6 km/h 3.2 km/h 65 % 0.0 mm
23:10 14.3 °C 7.6 °C 1015.8 hPa NNE 1.6 km/h 3.2 km/h 64 % 0.0 mm
23:20 14.3 °C 7.8 °C 1015.8 hPa NNE 3.2 km/h 3.2 km/h 65 % 0.0 mm
23:40 14.0 °C 7.7 °C 1015.8 hPa North 1.6 km/h 3.2 km/h 66 % 0.0 mm
23:50 13.8 °C 7.6 °C 1015.8 hPa Calm   3.2 km/h 66 % 0.0 mm
Meteo Sesrovires
Elogis d' Weather Underground - 2.75 mb

Guio original per  Jim McMurry - jmcmurry@mwt.net Adaptat per a la plantilla per  Wim van der Kuil - Leuven-Template.eu

Trobareu la nostra informacio del temps tambe a:

Weather Underground

AWEKAS